Time;durP1;ratioP1;P1;durP2;ratioP2;P2;SDS_P1;SDS_P2;PMS_P1;PMS_P2;Temp;Humidity;BMP_temperature;BMP_pressure;BME280_temperature;BME280_humidity;BME280_pressure;Samples;Min_cycle;Max_cycle;Signal;HPM_P1;HPM_P2
2022/03/18 00:00:47;;;;;;;62.83;36.00;;;;;;;7.24;73.89;97628.56;5112072;28;20067;-76
2022/03/18 00:03:14;;;;;;;72.15;38.70;;;;;;;7.21;73.86;97629.94;5112769;28;20042;-75
2022/03/18 00:05:41;;;;;;;65.65;35.65;;;;;;;7.18;74.07;97630.44;5111264;28;20126;-75
2022/03/18 00:08:10;;;;;;;69.05;37.20;;;;;;;7.17;74.13;97628.81;5108908;28;20055;-75
2022/03/18 00:10:37;;;;;;;66.90;36.55;;;;;;;7.15;73.98;97622.88;5109618;28;20051;-75
2022/03/18 00:13:04;;;;;;;73.30;36.95;;;;;;;7.14;73.66;97629.34;5109770;28;20039;-75
2022/03/18 00:15:33;;;;;;;67.68;36.55;;;;;;;7.11;73.67;97629.06;5111490;28;20071;-75
2022/03/18 00:18:00;;;;;;;70.90;36.28;;;;;;;7.10;73.99;97627.41;5113377;28;20051;-75
2022/03/18 00:20:26;;;;;;;65.95;36.45;;;;;;;7.06;74.00;97627.97;5115704;28;20047;-75
2022/03/18 00:22:53;;;;;;;67.15;36.58;;;;;;;7.04;74.00;97630.09;5114978;28;20051;-76
2022/03/18 00:25:20;;;;;;;73.13;38.10;;;;;;;7.00;74.23;97623.59;5114456;28;20051;-76
2022/03/18 00:27:50;;;;;;;65.40;35.58;;;;;;;6.97;74.37;97623.31;5114319;28;20540;-75
2022/03/18 00:30:18;;;;;;;66.05;35.78;;;;;;;6.94;74.49;97624.66;5112097;28;20137;-75
2022/03/18 00:32:49;;;;;;;70.28;37.53;;;;;;;6.90;74.37;97628.97;5111913;28;20156;-76
2022/03/18 00:35:16;;;;;;;69.10;37.10;;;;;;;6.87;74.84;97626.78;5092926;28;20150;-76
2022/03/18 00:37:42;;;;;;;70.50;38.03;;;;;;;6.84;74.77;97627.31;5111726;28;20044;-75
2022/03/18 00:40:10;;;;;;;72.22;38.25;;;;;;;6.82;74.91;97623.22;5111108;28;20111;-77
2022/03/18 00:42:37;;;;;;;64.38;36.65;;;;;;;6.80;75.11;97620.78;5113790;28;20043;-75
2022/03/18 00:45:05;;;;;;;70.63;37.95;;;;;;;6.79;75.12;97624.59;5111736;28;20039;-75
2022/03/18 00:53:01;;;;;;;74.25;37.42;;;;;;;6.69;75.28;97633.47;5111469;28;20535;-77
2022/03/18 00:55:28;;;;;;;66.25;35.85;;;;;;;6.66;75.03;97633.97;5111819;28;20130;-75
2022/03/18 00:57:55;;;;;;;65.38;34.50;;;;;;;6.61;74.84;97635.81;5111288;28;20051;-75
2022/03/18 01:00:22;;;;;;;63.80;34.33;;;;;;;6.55;74.96;97634.97;5111191;28;20405;-76
2022/03/18 01:02:48;;;;;;;65.13;34.50;;;;;;;6.50;75.07;97640.34;5110277;28;20044;-74
2022/03/18 01:05:17;;;;;;;65.95;34.83;;;;;;;6.43;75.12;97634.38;5111025;28;20101;-74
2022/03/18 01:07:43;;;;;;;62.15;34.65;;;;;;;6.37;75.37;97630.81;5110007;28;20143;-74
2022/03/18 01:10:12;;;;;;;65.90;35.35;;;;;;;6.34;75.29;97631.31;5110589;28;20052;-78
2022/03/18 01:12:39;;;;;;;67.65;36.45;;;;;;;6.30;75.39;97630.19;5110231;28;20043;-77
2022/03/18 01:15:07;;;;;;;76.53;38.85;;;;;;;6.27;75.40;97636.97;5100347;28;20654;-76
2022/03/18 01:17:34;;;;;;;73.03;37.88;;;;;;;6.25;76.01;97632.88;5089698;28;20052;-77
2022/03/18 01:20:02;;;;;;;68.80;36.55;;;;;;;6.25;76.19;97638.28;5089624;28;20786;-76
2022/03/18 01:22:30;;;;;;;73.15;38.03;;;;;;;6.22;76.50;97638.81;5089639;28;20083;-76
2022/03/18 01:24:57;;;;;;;74.63;38.75;;;;;;;6.21;76.53;97637.16;5088980;28;20059;-78
2022/03/18 01:27:25;;;;;;;72.40;37.38;;;;;;;6.20;76.46;97638.22;5089322;28;20455;-74
2022/03/18 01:29:52;;;;;;;71.40;37.03;;;;;;;6.19;76.56;97645.53;5103849;28;20051;-78
2022/03/18 01:32:19;;;;;;;76.32;39.15;;;;;;;6.19;76.78;97639.31;5110926;28;20051;-76
2022/03/18 01:34:45;;;;;;;76.40;39.17;;;;;;;6.20;76.81;97641.75;5111261;28;20044;-78
2022/03/18 01:37:12;;;;;;;75.90;38.75;;;;;;;6.24;76.80;97642.06;5110051;28;20042;-75
2022/03/18 01:39:40;;;;;;;73.68;38.20;;;;;;;6.25;77.00;97643.69;5110780;28;20054;-75
2022/03/18 01:42:07;;;;;;;72.88;38.28;;;;;;;6.26;76.76;97646.16;5110225;28;20051;-75
2022/03/18 01:44:40;;;;;;;72.18;37.78;;;;;;;6.27;76.92;97646.97;5111423;28;20047;-74
2022/03/18 01:47:07;;;;;;;68.53;35.63;;;;;;;6.30;76.88;97651.84;5109282;28;20079;-76
2022/03/18 01:49:34;;;;;;;67.43;36.35;;;;;;;6.30;76.89;97646.44;5110428;28;20058;-75
2022/03/18 01:52:01;;;;;;;70.65;37.72;;;;;;;6.29;76.90;97650.22;5110760;28;20048;-76
2022/03/18 01:54:47;;;;;;;74.18;37.50;;;;;;;6.31;76.59;97652.66;5113494;28;20040;-75
2022/03/18 01:57:18;;;;;;;66.72;37.03;;;;;;;6.32;76.61;97657.81;5113490;28;20126;-76
2022/03/18 01:59:45;;;;;;;69.93;37.72;;;;;;;6.34;76.53;97658.38;5112717;28;20047;-75
2022/03/18 02:02:15;;;;;;;69.95;37.50;;;;;;;6.35;77.03;97654.59;5111376;28;20521;-75
2022/03/18 02:04:41;;;;;;;73.82;38.25;;;;;;;6.37;77.04;97652.47;5110757;28;20242;-76
2022/03/18 02:07:10;;;;;;;73.70;37.92;;;;;;;6.38;76.70;97648.66;5110374;28;20589;-76
2022/03/18 02:09:37;;;;;;;73.63;39.03;;;;;;;6.40;76.60;97651.09;5110198;28;20070;-75
2022/03/18 02:12:05;;;;;;;71.05;36.80;;;;;;;6.39;76.52;97663.81;5110680;28;20052;-74
2022/03/18 02:14:35;;;;;;;74.10;38.90;;;;;;;6.42;76.57;97662.47;5090619;28;20055;-76
2022/03/18 02:17:04;;;;;;;72.93;38.80;;;;;;;6.39;76.61;97655.72;5089254;28;20062;-75
2022/03/18 02:19:30;;;;;;;67.00;35.88;;;;;;;6.40;76.78;97656.53;5090003;28;20059;-75
2022/03/18 02:21:58;;;;;;;66.63;35.92;;;;;;;6.41;76.48;97652.72;5091521;28;20051;-75
2022/03/18 02:24:26;;;;;;;62.97;36.05;;;;;;;6.42;76.33;97651.66;5093273;28;20055;-75
2022/03/18 02:26:54;;;;;;;70.72;38.42;;;;;;;6.41;76.52;97652.72;5092740;28;20044;-76
2022/03/18 02:29:23;;;;;;;65.40;36.42;;;;;;;6.41;76.34;97658.97;5098472;28;20074;-77
2022/03/18 02:31:50;;;;;;;69.63;37.40;;;;;;;6.41;76.55;97667.06;5096577;28;20044;-76
2022/03/18 02:34:17;;;;;;;71.15;38.03;;;;;;;6.39;76.62;97666.53;5097842;28;20052;-76
2022/03/18 02:36:44;;;;;;;68.47;35.63;;;;;;;6.38;76.56;97667.59;5093943;28;20419;-76
2022/03/18 02:39:10;;;;;;;66.10;36.08;;;;;;;6.36;76.29;97667.03;5091408;28;20045;-76
2022/03/18 02:41:38;;;;;;;63.58;34.45;;;;;;;6.35;76.17;97662.69;5094530;28;20407;-76
2022/03/18 02:44:05;;;;;;;61.70;34.80;;;;;;;6.31;75.90;97666.19;5094076;28;20044;-75
2022/03/18 02:46:32;;;;;;;69.47;36.78;;;;;;;6.29;76.15;97666.44;5094942;28;20040;-75
2022/03/18 02:49:01;;;;;;;65.18;36.05;;;;;;;6.28;75.86;97670.22;5096844;28;20135;-77
2022/03/18 02:51:30;;;;;;;71.90;37.05;;;;;;;6.27;75.96;97669.41;5098316;28;20048;-77
2022/03/18 02:53:57;;;;;;;66.95;33.08;;;;;;;6.24;75.76;97667.22;5094345;28;20044;-77
2022/03/18 02:56:24;;;;;;;59.05;33.28;;;;;;;6.22;76.00;97676.69;5092722;28;20411;-75
2022/03/18 02:58:55;;;;;;;65.93;35.40;;;;;;;6.19;75.89;97671.78;5092236;28;20415;-75
2022/03/18 03:01:22;;;;;;;70.60;36.97;;;;;;;6.18;76.09;97664.72;5111610;28;20051;-75
2022/03/18 03:03:48;;;;;;;71.35;37.40;;;;;;;6.17;76.63;97661.22;5111824;28;20052;-75
2022/03/18 03:08:59;;;;;;;73.07;38.60;;;;;;;6.14;76.77;97664.41;5112212;28;20051;-74
2022/03/18 03:11:26;;;;;;;69.57;36.83;;;;;;;6.15;77.12;97660.63;5110373;28;20453;-74
2022/03/18 03:13:54;;;;;;;72.30;37.30;;;;;;;6.16;76.95;97666.88;5126323;27;20047;-76
2022/03/18 03:16:20;;;;;;;72.95;39.20;;;;;;;6.15;77.01;97670.66;5113199;27;20039;-76
2022/03/18 03:18:47;;;;;;;67.65;37.08;;;;;;;6.15;76.87;97670.66;5111330;28;20044;-75
2022/03/18 03:21:14;;;;;;;71.45;36.83;;;;;;;6.12;76.88;97672.00;5110773;28;20043;-77
2022/03/18 03:23:41;;;;;;;70.70;37.03;;;;;;;6.10;76.64;97676.00;5112717;28;20051;-76
2022/03/18 03:26:08;;;;;;;75.05;37.88;;;;;;;6.08;76.59;97673.56;5110287;28;20047;-77
2022/03/18 03:28:34;;;;;;;66.57;35.33;;;;;;;6.06;76.69;97680.31;5112028;28;20051;-76
2022/03/18 03:31:03;;;;;;;70.90;37.78;;;;;;;6.01;76.61;97681.91;5111575;28;20048;-74
2022/03/18 03:33:29;;;;;;;68.75;36.20;;;;;;;5.96;76.99;97684.56;5111561;28;20047;-76
2022/03/18 03:35:56;;;;;;;65.28;35.30;;;;;;;5.93;77.09;97690.47;5110724;28;20051;-77
2022/03/18 03:38:23;;;;;;;73.88;36.47;;;;;;;5.89;77.14;97689.28;5109233;28;20050;-75
2022/03/18 03:40:50;;;;;;;71.18;37.15;;;;;;;5.86;76.96;97695.22;5109895;28;20070;-78
2022/03/18 03:43:17;;;;;;;72.45;36.75;;;;;;;5.83;77.55;97701.13;5108874;28;20477;-75
2022/03/18 03:45:43;;;;;;;73.00;37.60;;;;;;;5.84;77.53;97710.06;5109260;28;20052;-76
2022/03/18 03:48:12;;;;;;;67.00;34.92;;;;;;;5.86;77.54;97702.53;5107887;28;20159;-74
2022/03/18 03:50:40;;;;;;;65.60;34.33;;;;;;;5.86;77.27;97700.63;5108708;28;20048;-77
2022/03/18 03:53:07;;;;;;;66.55;34.70;;;;;;;5.83;77.18;97703.03;5109771;28;20571;-75
2022/03/18 03:55:34;;;;;;;72.35;36.65;;;;;;;5.82;77.31;97707.63;5110627;28;20047;-75
2022/03/18 03:58:00;;;;;;;64.57;35.03;;;;;;;5.82;77.47;97715.72;5091489;28;20138;-76
2022/03/18 04:00:27;;;;;;;70.70;36.25;;;;;;;5.82;77.63;97714.91;5109273;28;20520;-74
2022/03/18 04:02:53;;;;;;;68.05;35.88;;;;;;;5.80;77.97;97717.88;5109810;28;20055;-75
2022/03/18 04:05:24;;;;;;;66.53;35.20;;;;;;;5.79;77.86;97720.81;5108693;28;20055;-76
2022/03/18 04:07:51;;;;;;;72.63;36.58;;;;;;;5.79;77.92;97729.75;5109526;28;20059;-75
2022/03/18 04:10:19;;;;;;;73.03;37.25;;;;;;;5.76;77.64;97730.25;5107805;28;20589;-76
2022/03/18 04:12:45;;;;;;;70.18;36.63;;;;;;;5.67;77.45;97734.47;5129141;28;20051;-74
2022/03/18 04:15:14;;;;;;;72.40;37.75;;;;;;;5.64;77.45;97745.81;5127676;28;20062;-75
2022/03/18 04:17:43;;;;;;;69.88;35.58;;;;;;;5.60;77.46;97747.38;5127195;28;20573;-76
2022/03/18 04:20:12;;;;;;;66.07;34.28;;;;;;;5.55;77.43;97750.81;5127743;28;20051;-76
2022/03/18 04:22:40;;;;;;;69.28;35.38;;;;;;;5.52;77.47;97755.91;5127054;28;20077;-76
2022/03/18 04:25:08;;;;;;;69.30;35.55;;;;;;;5.49;77.67;97755.34;5128339;28;20064;-75
2022/03/18 04:27:35;;;;;;;71.13;36.17;;;;;;;5.51;77.70;97755.09;5127968;28;20051;-75
2022/03/18 04:30:02;;;;;;;77.03;37.42;;;;;;;5.54;77.86;97757.31;5119595;28;20410;-77
2022/03/18 04:32:29;;;;;;;71.78;34.92;;;;;;;5.55;78.10;97763.53;5107207;28;20044;-76
2022/03/18 04:34:55;;;;;;;75.97;36.05;;;;;;;5.59;78.25;97765.47;5107444;28;20129;-76
2022/03/18 04:37:22;;;;;;;67.40;35.15;;;;;;;5.62;78.66;97764.13;5106125;28;20051;-75
2022/03/18 04:39:50;;;;;;;77.50;36.85;;;;;;;5.65;78.55;97775.28;5106654;28;20063;-75
2022/03/18 04:42:16;;;;;;;70.20;36.38;;;;;;;5.67;78.53;97772.31;5106620;28;20048;-77
2022/03/18 04:44:43;;;;;;;71.00;36.78;;;;;;;5.68;78.60;97763.94;5105719;28;20051;-76
2022/03/18 04:47:11;;;;;;;73.50;37.53;;;;;;;5.69;78.43;97767.47;5106089;28;20055;-75
2022/03/18 04:49:37;;;;;;;76.47;38.08;;;;;;;5.71;78.47;97768.03;5105871;28;20051;-76
2022/03/18 04:52:05;;;;;;;71.18;35.75;;;;;;;5.71;78.54;97779.66;5105923;28;20047;-76
2022/03/18 04:54:31;;;;;;;76.68;37.97;;;;;;;5.72;78.62;97781.28;5106176;28;20050;-76
2022/03/18 04:57:18;;;;;;;79.20;37.25;;;;;;;5.73;78.37;97777.53;5105440;28;20272;-77
2022/03/18 04:59:45;;;;;;;70.70;35.90;;;;;;;5.75;78.21;97782.69;5105868;28;20116;-76
2022/03/18 05:02:13;;;;;;;75.35;38.08;;;;;;;5.78;78.55;97779.47;5108141;28;20036;-76
2022/03/18 05:04:41;;;;;;;77.75;35.40;;;;;;;5.81;78.70;97784.38;5110667;28;20058;-76
2022/03/18 05:07:08;;;;;;;72.05;36.30;;;;;;;5.84;78.71;97783.84;5108728;28;20132;-76
2022/03/18 05:09:35;;;;;;;79.20;37.67;;;;;;;5.84;78.65;97783.03;5110657;28;20410;-76
2022/03/18 05:12:03;;;;;;;72.20;36.13;;;;;;;5.85;78.30;97784.72;5109552;28;20518;-76
2022/03/18 05:14:30;;;;;;;73.45;35.63;;;;;;;5.86;78.36;97791.75;5109997;28;20044;-77
2022/03/18 05:16:56;;;;;;;72.88;35.88;;;;;;;5.90;78.34;97788.28;5109677;28;20054;-76
2022/03/18 05:19:23;;;;;;;73.15;36.13;;;;;;;5.91;78.17;97795.34;5110396;28;20048;-74
2022/03/18 05:21:49;;;;;;;62.80;33.80;;;;;;;5.95;78.01;97801.91;5111038;28;20055;-75
2022/03/18 05:24:16;;;;;;;67.43;34.10;;;;;;;5.97;77.65;97802.44;5109300;28;20054;-76
2022/03/18 05:26:43;;;;;;;67.63;34.70;;;;;;;5.98;77.60;97805.97;5110581;28;20108;-75
2022/03/18 05:29:10;;;;;;;78.95;37.25;;;;;;;5.95;77.54;97807.31;5099622;28;20494;-76
2022/03/18 05:31:39;;;;;;;71.28;35.85;;;;;;;5.96;77.67;97803.53;5110152;28;20044;-76
2022/03/18 05:34:06;;;;;;;66.78;34.85;;;;;;;5.99;77.72;97807.59;5109835;28;20047;-74
2022/03/18 05:36:32;;;;;;;69.55;35.97;;;;;;;6.00;77.71;97820.88;5110925;28;20049;-76
2022/03/18 05:39:02;;;;;;;73.55;36.65;;;;;;;6.01;77.61;97816.28;5110647;28;20047;-75
2022/03/18 05:41:28;;;;;;;71.38;36.53;;;;;;;5.98;77.37;97814.88;5111905;28;20059;-76
2022/03/18 05:43:55;;;;;;;69.47;36.20;;;;;;;5.97;77.26;97834.88;5111475;28;20497;-75
2022/03/18 05:46:23;;;;;;;74.00;36.40;;;;;;;5.96;77.61;97830.56;5110270;28;22691;-75
2022/03/18 05:48:49;;;;;;;68.45;35.88;;;;;;;5.97;77.76;97832.19;5115000;28;20043;-76
2022/03/18 05:51:16;;;;;;;80.43;37.90;;;;;;;5.97;77.93;97826.78;5113514;28;20047;-76
2022/03/18 05:53:44;;;;;;;71.25;37.25;;;;;;;5.93;77.66;97828.34;5114757;28;20171;-76
2022/03/18 05:59:00;;;;;;;73.72;38.25;;;;;;;5.98;77.87;97844.63;5095068;28;20043;-76
2022/03/18 06:01:29;;;;;;;72.20;36.28;;;;;;;5.99;78.33;97846.25;5111642;28;20051;-77
2022/03/18 06:03:56;;;;;;;75.72;36.85;;;;;;;6.01;78.19;97843.31;5110777;28;20055;-76
2022/03/18 06:06:22;;;;;;;70.05;37.22;;;;;;;6.03;78.25;97846.59;5110230;28;20176;-75
2022/03/18 06:11:52;;;;;;;75.40;38.22;;;;;;;5.90;78.15;97855.88;5107419;28;20089;-77
2022/03/18 06:14:20;;;;;;;70.75;37.42;;;;;;;5.95;78.17;97860.53;5108840;28;20051;-75
2022/03/18 06:16:50;;;;;;;74.85;37.83;;;;;;;5.96;78.26;97863.00;5108742;28;20051;-76
2022/03/18 06:19:17;;;;;;;73.03;38.10;;;;;;;5.92;78.73;97859.16;5108154;28;20040;-77
2022/03/18 06:21:44;;;;;;;74.13;37.92;;;;;;;5.92;78.90;97864.56;5109642;28;20043;-75
2022/03/18 06:24:11;;;;;;;71.20;37.92;;;;;;;5.95;79.08;97861.38;5108873;28;20489;-76
2022/03/18 06:26:37;;;;;;;77.53;39.33;;;;;;;6.03;79.26;97870.09;5107974;28;20039;-76
2022/03/18 06:29:05;;;;;;;78.63;39.70;;;;;;;6.11;79.43;97869.66;5108741;28;20054;-75
2022/03/18 06:31:31;;;;;;;78.75;40.25;;;;;;;6.10;79.76;97876.94;5087826;28;20044;-76
2022/03/18 06:34:00;;;;;;;78.22;40.58;;;;;;;6.19;79.95;97877.34;5089071;28;20055;-77
2022/03/18 06:36:28;;;;;;;75.30;40.47;;;;;;;6.27;80.21;97879.59;5086579;28;20039;-76
2022/03/18 06:38:54;;;;;;;76.82;40.70;;;;;;;6.34;80.22;97887.53;5088773;28;20048;-75
2022/03/18 06:41:23;;;;;;;75.35;38.97;;;;;;;6.43;80.12;97896.84;5097379;28;20047;-77
2022/03/18 06:43:50;;;;;;;72.50;41.28;;;;;;;6.49;79.83;97888.50;5108592;28;20063;-76
2022/03/18 06:46:21;;;;;;;73.85;39.45;;;;;;;6.60;79.72;97896.75;5108386;28;20046;-77
2022/03/18 06:48:48;;;;;;;70.35;38.13;;;;;;;6.70;79.80;97902.25;5109567;28;20052;-75
2022/03/18 06:51:16;;;;;;;68.60;36.75;;;;;;;6.78;79.24;97902.59;5108657;28;20056;-75
2022/03/18 06:53:43;;;;;;;70.72;38.08;;;;;;;6.83;78.77;97909.16;5108278;28;20043;-76
2022/03/18 06:56:12;;;;;;;73.15;37.28;;;;;;;6.89;78.85;97908.97;5108678;28;20055;-74
2022/03/18 06:58:39;;;;;;;68.18;36.83;;;;;;;6.95;78.95;97916.06;5107800;28;20048;-76
2022/03/18 07:01:08;;;;;;;67.65;36.33;;;;;;;6.97;77.83;97916.59;5108179;28;20051;-77
2022/03/18 07:03:35;;;;;;;68.07;35.83;;;;;;;7.00;77.62;97920.72;5108950;28;20134;-76
2022/03/18 07:06:03;;;;;;;69.38;36.55;;;;;;;7.10;77.39;97917.25;5108035;28;20047;-76
2022/03/18 07:08:31;;;;;;;61.90;35.47;;;;;;;7.20;77.32;97923.56;5107553;28;20039;-75
2022/03/18 07:10:58;;;;;;;63.45;36.08;;;;;;;7.27;76.97;97921.50;5107634;28;20513;-76
2022/03/18 07:13:24;;;;;;;69.38;36.65;;;;;;;7.33;76.76;97925.88;5107421;28;20125;-76
2022/03/18 07:15:51;;;;;;;65.53;34.60;;;;;;;7.42;77.03;97933.53;5106599;28;20047;-75
2022/03/18 07:18:16;;;;;;;68.07;36.45;;;;;;;7.49;76.13;97924.09;5107281;28;20047;-76
2022/03/18 07:20:46;;;;;;;56.58;32.95;;;;;;;7.58;76.40;97940.72;5106851;28;20055;-77
2022/03/18 07:23:14;;;;;;;58.58;33.60;;;;;;;7.65;75.42;97924.22;5107473;28;20070;-75
2022/03/18 07:25:45;;;;;;;59.83;32.33;;;;;;;7.69;74.44;97939.69;5107050;28;20491;-76
2022/03/18 07:28:14;;;;;;;59.33;33.97;;;;;;;7.70;73.92;97929.66;5107131;28;20048;-76
2022/03/18 07:30:42;;;;;;;54.55;31.58;;;;;;;7.68;73.45;97940.78;5107692;28;20043;-76
2022/03/18 07:33:09;;;;;;;58.85;33.13;;;;;;;7.67;73.67;97938.31;5108216;28;20160;-76
2022/03/18 07:35:37;;;;;;;57.13;34.08;;;;;;;7.73;74.01;97940.00;5108195;28;20043;-76
2022/03/18 07:38:05;;;;;;;59.45;33.13;;;;;;;7.82;73.62;97941.13;5106873;28;20051;-76
2022/03/18 07:40:31;;;;;;;57.15;34.15;;;;;;;7.98;74.09;97942.84;5108204;28;20589;-76
2022/03/18 07:43:00;;;;;;;57.03;31.98;;;;;;;8.13;72.75;97944.03;5110024;28;20047;-75
2022/03/18 07:45:28;;;;;;;58.40;32.22;;;;;;;8.27;71.54;97945.19;5113546;28;20051;-76
2022/03/18 07:47:56;;;;;;;55.83;31.13;;;;;;;8.30;70.64;97950.06;5113787;28;20051;-76
2022/03/18 07:50:25;;;;;;;57.42;30.95;;;;;;;8.35;70.47;97955.53;5114585;28;20051;-76
2022/03/18 07:52:54;;;;;;;53.28;31.38;;;;;;;8.39;69.63;97948.53;5115827;28;20054;-76
2022/03/18 07:55:22;;;;;;;74.88;33.55;;;;;;;8.42;69.12;97958.06;5114009;28;20579;-76
2022/03/18 07:57:52;;;;;;;53.90;29.92;;;;;;;8.27;68.58;97962.28;5114748;28;20043;-75
2022/03/18 08:00:21;;;;;;;56.38;30.83;;;;;;;8.43;69.22;97960.50;5112599;28;20051;-80
2022/03/18 08:02:49;;;;;;;55.72;31.45;;;;;;;8.53;68.95;97965.97;5114734;28;20050;-81
2022/03/18 08:05:16;;;;;;;57.63;32.53;;;;;;;8.59;68.66;97964.91;5112043;28;20043;-76
2022/03/18 08:07:44;;;;;;;54.65;31.70;;;;;;;8.59;67.64;97970.34;5112790;28;20516;-75
2022/03/18 08:10:12;;;;;;;52.13;30.92;;;;;;;8.63;67.36;97971.44;5112898;28;20047;-75
2022/03/18 08:12:40;;;;;;;57.05;28.55;;;;;;;8.73;66.81;97975.28;5115043;28;20047;-77
2022/03/18 08:15:09;;;;;;;54.42;30.88;;;;;;;8.85;65.71;97973.16;5112188;28;20044;-78
2022/03/18 08:17:38;;;;;;;53.75;30.05;;;;;;;8.91;63.63;97980.22;5110955;28;20055;-77
2022/03/18 08:20:08;;;;;;;47.55;28.15;;;;;;;8.96;64.05;97974.81;5109454;28;20111;-78
2022/03/18 08:22:35;;;;;;;49.25;27.98;;;;;;;8.91;61.63;97976.69;5112664;28;20044;-78
2022/03/18 08:25:02;;;;;;;48.47;28.52;;;;;;;8.92;62.51;97984.56;5112990;28;20043;-79
2022/03/18 08:27:29;;;;;;;51.25;29.52;;;;;;;8.97;61.36;97986.47;5110355;28;20048;-79
2022/03/18 08:29:59;;;;;;;52.20;29.30;;;;;;;9.00;61.62;97997.66;5111914;28;20055;-78
2022/03/18 08:32:27;;;;;;;51.92;30.23;;;;;;;9.10;62.11;97997.66;5098672;28;20652;-78
2022/03/18 08:34:55;;;;;;;51.65;30.48;;;;;;;9.19;62.48;98005.28;5108377;28;20134;-78
2022/03/18 08:40:03;;;;;;;51.75;29.35;;;;;;;9.35;65.15;98001.53;5104476;28;20117;-80
2022/03/18 08:42:29;;;;;;;46.50;30.20;;;;;;;9.42;64.11;98004.78;5098305;28;20053;-80
2022/03/18 08:44:56;;;;;;;48.55;30.67;;;;;;;9.45;63.40;98009.72;5113296;28;20520;-78
2022/03/18 08:47:23;;;;;;;47.30;30.33;;;;;;;9.51;64.33;98011.34;5113087;28;20039;-79
2022/03/18 08:49:50;;;;;;;53.83;31.08;;;;;;;9.70;63.70;98021.66;5112877;28;20438;-79
2022/03/18 08:52:18;;;;;;;53.20;30.38;;;;;;;9.94;63.42;98014.59;5112935;28;20062;-78
2022/03/18 08:54:45;;;;;;;46.67;27.30;;;;;;;10.13;60.50;98020.31;5112113;28;20055;-80
2022/03/18 08:57:12;;;;;;;46.28;27.98;;;;;;;10.36;59.90;98025.19;5127781;28;20043;-77
2022/03/18 08:59:38;;;;;;;45.67;26.60;;;;;;;10.76;59.71;98022.66;5112030;28;20043;-77
2022/03/18 09:02:05;;;;;;;38.97;25.15;;;;;;;10.92;54.93;98019.56;5111772;28;20558;-78
2022/03/18 09:04:32;;;;;;;37.70;23.92;;;;;;;11.03;53.67;98023.06;5112738;28;20123;-79
2022/03/18 09:06:59;;;;;;;40.75;25.63;;;;;;;11.26;53.71;98026.22;5112739;28;20415;-79
2022/03/18 09:09:29;;;;;;;39.47;25.15;;;;;;;11.43;52.07;98023.91;5112367;28;20051;-79
2022/03/18 09:11:55;;;;;;;39.65;25.08;;;;;;;11.55;50.16;98027.13;5112149;28;20086;-79
2022/03/18 09:14:22;;;;;;;39.33;23.52;;;;;;;11.76;50.22;98028.59;5112885;28;20050;-78
2022/03/18 09:16:51;;;;;;;37.30;23.67;;;;;;;12.00;50.04;98036.09;5112172;28;20081;-79
2022/03/18 09:19:18;;;;;;;39.55;24.33;;;;;;;12.13;47.32;98037.34;5112183;28;20053;-78
2022/03/18 09:21:44;;;;;;;41.80;23.92;;;;;;;12.19;47.81;98042.47;5112138;28;20055;-78
2022/03/18 09:24:11;;;;;;;36.08;23.98;;;;;;;12.20;46.38;98041.38;5112128;28;20108;-79
2022/03/18 09:26:42;;;;;;;38.28;23.75;;;;;;;12.28;47.99;98042.69;5112548;28;20093;-78
2022/03/18 09:29:08;;;;;;;34.45;22.40;;;;;;;12.41;47.12;98043.91;5113631;28;20051;-76
2022/03/18 09:31:36;;;;;;;38.20;21.85;;;;;;;12.42;45.30;98045.53;5114169;28;20038;-77
2022/03/18 09:34:04;;;;;;;33.88;22.80;;;;;;;12.54;47.62;98046.78;5117898;28;20112;-81
2022/03/18 09:36:31;;;;;;;37.70;23.35;;;;;;;12.69;45.95;98048.53;5120942;28;20050;-78
2022/03/18 09:38:59;;;;;;;34.65;21.80;;;;;;;12.80;44.00;98052.78;5117085;28;20053;-78
2022/03/18 09:41:29;;;;;;;36.75;23.00;;;;;;;12.95;44.08;98053.72;5116825;28;20040;-76
2022/03/18 09:43:57;;;;;;;34.40;23.65;;;;;;;13.23;44.80;98041.91;5117598;28;20042;-79
2022/03/18 09:46:24;;;;;;;36.08;22.42;;;;;;;13.41;43.88;98048.47;5114725;28;20719;-79
2022/03/18 09:48:51;;;;;;;36.15;22.83;;;;;;;13.67;43.85;98051.66;5115436;28;20048;-79
2022/03/18 09:51:18;;;;;;;35.88;22.42;;;;;;;13.76;41.47;98055.38;5114300;28;20094;-79
2022/03/18 09:53:45;;;;;;;32.53;19.85;;;;;;;13.78;38.79;98057.81;5114812;28;20047;-79
2022/03/18 09:56:11;;;;;;;35.03;20.50;;;;;;;13.63;39.61;98053.41;5113418;28;20052;-79
2022/03/18 09:58:40;;;;;;;35.10;19.83;;;;;;;13.58;41.48;98050.72;5113606;28;20051;-78
2022/03/18 10:01:08;;;;;;;31.42;19.48;;;;;;;13.67;39.88;98057.13;5111608;28;20048;-77
2022/03/18 10:03:40;;;;;;;31.80;21.08;;;;;;;13.68;39.98;98064.28;5112419;28;20048;-79
2022/03/18 10:06:10;;;;;;;35.13;21.38;;;;;;;13.76;38.04;98066.31;5110891;28;20051;-78
2022/03/18 10:08:51;;;;;;;31.95;21.20;;;;;;;13.66;38.82;98071.94;5112149;28;20047;-78
2022/03/18 10:11:19;;;;;;;32.88;20.73;;;;;;;13.60;39.65;98061.38;5111699;28;20040;-79
2022/03/18 10:13:53;;;;;;;30.00;20.58;;;;;;;13.60;40.44;98070.41;5111789;28;20047;-78
2022/03/18 10:16:33;;;;;;;33.20;20.70;;;;;;;13.48;41.97;98080.97;5110610;28;20067;-78
2022/03/18 10:19:00;;;;;;;35.42;20.17;;;;;;;13.53;39.46;98073.50;5110344;28;20417;-78
2022/03/18 10:21:26;;;;;;;32.20;19.50;;;;;;;13.50;38.71;98073.28;5110682;28;20044;-77
2022/03/18 10:24:04;;;;;;;36.63;20.58;;;;;;;13.63;39.96;98072.56;5111152;28;20518;-77
2022/03/18 10:26:35;;;;;;;31.50;20.52;;;;;;;13.78;40.40;98077.81;5109654;28;20051;-79
2022/03/18 10:29:01;;;;;;;34.70;21.48;;;;;;;13.93;38.86;98081.41;5110945;28;20051;-78
2022/03/18 10:31:30;;;;;;;31.55;21.13;;;;;;;13.99;40.81;98074.72;5109648;28;20044;-78
2022/03/18 10:37:08;;;;;;;30.67;20.65;;;;;;;14.28;38.21;98071.81;5110460;28;20058;-79
2022/03/18 10:39:40;;;;;;;33.22;20.50;;;;;;;14.23;36.48;98072.69;5110498;28;20475;-78
2022/03/18 10:42:10;;;;;;;33.93;20.33;;;;;;;14.22;37.08;98073.81;5110093;28;20052;-79
2022/03/18 10:44:46;;;;;;;36.83;20.23;;;;;;;14.32;37.23;98070.91;5110507;28;20043;-81
2022/03/18 10:47:32;;;;;;;34.53;19.67;;;;;;;14.46;37.37;98070.13;5110042;28;20047;-77
2022/03/18 10:53:05;;;;;;;29.50;19.02;;;;;;;14.27;37.22;98070.19;5068950;27;20417;-75
2022/03/18 10:55:34;;;;;;;27.95;19.38;;;;;;;14.30;39.34;98073.16;5063721;28;20075;-75
2022/03/18 10:58:04;;;;;;;30.13;19.48;;;;;;;14.37;37.68;98072.75;5063547;28;20135;-75
2022/03/18 11:00:32;;;;;;;29.75;20.17;;;;;;;14.39;38.20;98076.00;5064119;28;20068;-74
2022/03/18 11:03:01;;;;;;;28.73;20.20;;;;;;;14.32;38.04;98079.13;5063292;28;20049;-74
2022/03/18 11:05:31;;;;;;;30.20;20.88;;;;;;;14.24;38.14;98077.06;5063881;28;20053;-74
2022/03/18 11:07:58;;;;;;;29.15;19.85;;;;;;;14.28;38.31;98078.09;5063153;28;20052;-75
2022/03/18 11:13:13;;;;;;;29.88;19.05;;;;;;;14.60;40.47;98091.00;5083455;28;20514;-75
2022/03/18 11:15:43;;;;;;;34.67;20.80;;;;;;;14.47;37.04;98085.47;5083211;28;20423;-74
2022/03/18 11:18:11;;;;;;;29.70;19.52;;;;;;;14.58;39.05;98092.41;5078440;28;20096;-75
2022/03/18 11:20:42;;;;;;;29.50;20.13;;;;;;;14.61;37.83;98084.38;5063143;28;20044;-77
2022/03/18 11:23:15;;;;;;;28.33;20.13;;;;;;;14.67;37.57;98096.09;5064467;28;20068;-75
2022/03/18 11:25:44;;;;;;;30.55;19.58;;;;;;;14.39;36.45;98091.63;5063795;28;20052;-75
2022/03/18 11:28:15;;;;;;;30.02;19.75;;;;;;;14.28;37.59;98090.97;5063548;28;20079;-76
2022/03/18 11:30:42;;;;;;;30.33;20.65;;;;;;;14.23;37.04;98091.88;5062984;28;20127;-74
2022/03/18 11:33:21;;;;;;;29.10;19.02;;;;;;;14.45;36.87;98093.16;5062902;28;20052;-75
2022/03/18 11:36:09;;;;;;;31.42;19.63;;;;;;;14.58;37.10;98093.22;5062923;28;20145;-75
2022/03/18 11:38:51;;;;;;;31.50;20.17;;;;;;;14.64;37.31;98093.97;5062128;28;20048;-73
2022/03/18 11:41:19;;;;;;;29.03;18.97;;;;;;;14.78;36.86;98097.53;5062769;28;20055;-74
2022/03/18 11:43:51;;;;;;;30.38;19.15;;;;;;;15.01;37.11;98100.41;5062573;28;20302;-75
2022/03/18 11:46:24;;;;;;;30.05;20.40;;;;;;;14.87;36.56;98101.19;5062383;28;20625;-75
2022/03/18 11:48:52;;;;;;;31.98;18.38;;;;;;;14.95;36.93;98107.09;5062676;28;20056;-75
2022/03/18 11:51:26;;;;;;;30.67;19.52;;;;;;;15.01;35.60;98105.88;5062019;28;20056;-76
2022/03/18 11:53:54;;;;;;;29.63;19.13;;;;;;;14.99;35.95;98099.91;5063052;28;20098;-75